createdAt,value
2022-11-15T00:00:52.829Z,61.18
2022-11-15T00:03:22.113Z,61.36
2022-11-15T00:05:48.729Z,61.22
2022-11-15T00:08:15.744Z,60.87
2022-11-15T00:10:42.934Z,61.37
2022-11-15T00:13:11.861Z,61.50
2022-11-15T00:15:42.532Z,60.84
2022-11-15T00:18:16.050Z,61.32
2022-11-15T00:20:42.746Z,62.05
2022-11-15T00:23:09.486Z,61.27
2022-11-15T00:25:36.441Z,61.32
2022-11-15T00:28:03.216Z,61.69
2022-11-15T00:30:29.944Z,60.93
2022-11-15T00:32:56.747Z,60.74
2022-11-15T00:35:23.729Z,61.59
2022-11-15T00:37:50.317Z,61.89
2022-11-15T00:40:17.066Z,62.12
2022-11-15T00:42:43.655Z,63.19
2022-11-15T00:45:10.889Z,62.12
2022-11-15T00:47:37.489Z,62.28
2022-11-15T00:50:05.264Z,61.50
2022-11-15T00:52:31.905Z,60.92
2022-11-15T00:54:58.506Z,61.24
2022-11-15T00:57:25.105Z,61.67
2022-11-15T00:59:51.718Z,61.01
2022-11-15T01:02:18.296Z,60.95
2022-11-15T01:04:44.949Z,61.22
2022-11-15T01:07:11.639Z,62.06
2022-11-15T01:09:38.257Z,61.55
2022-11-15T01:12:05.251Z,61.78
2022-11-15T01:14:31.857Z,61.01
2022-11-15T01:16:58.441Z,61.87
2022-11-15T01:19:25.069Z,62.73
2022-11-15T01:21:52.057Z,62.72
2022-11-15T01:24:18.659Z,62.79
2022-11-15T01:26:45.380Z,62.04
2022-11-15T01:29:12.018Z,61.79
2022-11-15T01:31:39.082Z,61.25
2022-11-15T01:34:05.681Z,61.22
2022-11-15T01:36:32.368Z,60.97
2022-11-15T01:38:59.703Z,60.76
2022-11-15T01:41:35.058Z,61.13
2022-11-15T01:44:29.385Z,62.32
2022-11-15T01:46:56.724Z,63.10
2022-11-15T01:49:24.772Z,63.11
2022-11-15T01:51:52.438Z,62.43
2022-11-15T01:54:22.215Z,62.57
2022-11-15T01:57:00.500Z,62.98
2022-11-15T01:59:27.440Z,62.94
2022-11-15T02:01:54.428Z,62.63
2022-11-15T02:04:29.827Z,63.02
2022-11-15T02:06:56.769Z,63.02
2022-11-15T02:09:23.593Z,63.05
2022-11-15T02:11:51.626Z,64.55
2022-11-15T02:14:21.041Z,63.69
2022-11-15T02:16:53.553Z,62.56
2022-11-15T02:19:32.254Z,62.08
2022-11-15T02:22:20.733Z,61.71
2022-11-15T02:25:18.568Z,61.38
2022-11-15T02:27:50.987Z,60.91
2022-11-15T02:30:38.876Z,61.83
2022-11-15T02:33:26.165Z,61.55
2022-11-15T02:35:59.635Z,61.95
2022-11-15T02:38:45.163Z,62.22
2022-11-15T02:41:17.833Z,62.51
2022-11-15T02:43:57.884Z,62.31
2022-11-15T02:47:17.439Z,62.95
2022-11-15T02:49:55.601Z,62.42
2022-11-15T02:52:24.304Z,61.74
2022-11-15T02:54:59.380Z,61.83
2022-11-15T02:58:19.745Z,61.74
2022-11-15T03:00:59.241Z,61.41
2022-11-15T03:03:32.096Z,61.02
2022-11-15T03:06:25.481Z,61.28
2022-11-15T03:09:06.610Z,61.34
2022-11-15T03:11:42.889Z,61.49
2022-11-15T03:14:12.321Z,61.93
2022-11-15T03:16:46.478Z,61.91
2022-11-15T03:19:28.288Z,62.18
2022-11-15T03:21:57.116Z,62.20
2022-11-15T03:24:26.407Z,62.79
2022-11-15T03:26:56.012Z,63.08
2022-11-15T03:29:27.220Z,63.14
2022-11-15T03:32:00.817Z,62.96
2022-11-15T03:34:42.722Z,63.98
2022-11-15T03:37:11.797Z,63.14
2022-11-15T03:39:38.478Z,62.64
2022-11-15T03:42:28.266Z,62.79
2022-11-15T03:45:09.482Z,61.84
2022-11-15T03:47:41.557Z,61.42
2022-11-15T03:50:19.576Z,61.31
2022-11-15T03:52:48.697Z,61.14
2022-11-15T03:55:20.540Z,61.06
2022-11-15T03:57:50.538Z,61.21
2022-11-15T04:00:17.685Z,61.39
2022-11-15T04:02:44.278Z,61.67
2022-11-15T04:05:10.933Z,62.48
2022-11-15T04:07:37.574Z,62.78
2022-11-15T04:10:06.264Z,62.49
2022-11-15T04:12:34.700Z,61.89
2022-11-15T04:15:12.383Z,62.00
2022-11-15T04:17:38.891Z,61.48
2022-11-15T04:20:27.009Z,61.17
2022-11-15T04:23:13.305Z,60.64
2022-11-15T04:25:40.606Z,60.98
2022-11-15T04:28:07.422Z,60.81
2022-11-15T04:30:34.055Z,61.30
2022-11-15T04:33:00.758Z,60.98
2022-11-15T04:35:27.822Z,61.24
2022-11-15T04:37:55.166Z,61.57
2022-11-15T04:40:21.851Z,61.78
2022-11-15T04:42:48.461Z,63.42
2022-11-15T04:45:15.160Z,62.54
2022-11-15T04:47:44.966Z,64.33
2022-11-15T04:50:14.374Z,62.51
2022-11-15T04:52:43.236Z,62.50
2022-11-15T04:55:11.623Z,63.77
2022-11-15T04:57:38.878Z,64.97
2022-11-15T05:00:08.105Z,63.68
2022-11-15T05:02:53.329Z,62.41
2022-11-15T05:05:20.101Z,61.73
2022-11-15T05:07:46.667Z,62.22
2022-11-15T05:10:13.266Z,61.84
2022-11-15T05:12:39.851Z,62.56
2022-11-15T05:15:07.036Z,62.73
2022-11-15T05:17:33.670Z,62.43
2022-11-15T05:20:00.289Z,61.91
2022-11-15T05:22:26.984Z,62.64
2022-11-15T05:24:53.604Z,62.15
2022-11-15T05:27:20.298Z,62.93
2022-11-15T05:29:46.943Z,62.60
2022-11-15T05:32:14.265Z,62.37
2022-11-15T05:34:40.911Z,62.57
2022-11-15T05:37:07.920Z,62.95
2022-11-15T05:39:34.524Z,63.38
2022-11-15T05:42:10.541Z,63.30
2022-11-15T05:44:39.290Z,62.39
2022-11-15T05:47:09.951Z,62.77
2022-11-15T05:49:40.446Z,63.00
2022-11-15T05:52:10.524Z,62.42
2022-11-15T05:54:38.296Z,63.48
2022-11-15T05:57:05.985Z,64.22
2022-11-15T05:59:34.457Z,63.59
2022-11-15T06:02:01.295Z,63.20
2022-11-15T06:04:28.285Z,63.65
2022-11-15T06:06:54.873Z,62.46
2022-11-15T06:09:21.486Z,62.53
2022-11-15T06:11:48.862Z,62.25
2022-11-15T06:14:15.411Z,62.57
2022-11-15T06:16:42.122Z,62.76
2022-11-15T06:19:08.920Z,62.65
2022-11-15T06:21:35.607Z,62.29
2022-11-15T06:24:02.390Z,63.14
2022-11-15T06:26:29.066Z,63.95
2022-11-15T06:28:55.653Z,63.86
2022-11-15T06:31:22.247Z,63.83
2022-11-15T06:33:50.526Z,63.38
2022-11-15T06:36:18.351Z,62.36
2022-11-15T06:38:46.013Z,62.01
2022-11-15T06:41:13.917Z,61.96
2022-11-15T06:43:41.236Z,61.39
2022-11-15T06:46:08.477Z,61.68
2022-11-15T06:48:35.948Z,61.85
2022-11-15T06:51:04.231Z,62.21
2022-11-15T06:53:31.665Z,62.26
2022-11-15T06:56:03.372Z,62.92
2022-11-15T06:58:30.086Z,63.56
2022-11-15T07:01:08.627Z,63.08
2022-11-15T07:03:37.005Z,63.52
2022-11-15T07:06:07.389Z,63.11
2022-11-15T07:08:35.171Z,63.25
2022-11-15T07:11:03.942Z,63.92
2022-11-15T07:13:35.887Z,64.33
2022-11-15T07:16:08.145Z,64.11
2022-11-15T07:18:36.547Z,64.02
2022-11-15T07:21:09.268Z,64.03
2022-11-15T07:23:39.824Z,63.87
2022-11-15T07:26:07.416Z,63.96
2022-11-15T07:28:34.283Z,63.76
2022-11-15T07:31:05.510Z,63.93
2022-11-15T07:33:32.851Z,64.44
2022-11-15T07:36:02.606Z,64.51
2022-11-15T07:38:29.966Z,64.61
2022-11-15T07:41:01.658Z,64.65
2022-11-15T07:43:33.916Z,64.75
2022-11-15T07:46:06.324Z,64.77
2022-11-15T07:48:43.373Z,66.00
2022-11-15T07:51:16.311Z,66.66
2022-11-15T07:53:44.093Z,66.61
2022-11-15T07:56:11.281Z,69.21
2022-11-15T07:58:37.974Z,71.63
2022-11-15T08:01:09.847Z,72.78
2022-11-15T08:03:37.142Z,72.87
2022-11-15T08:06:04.307Z,74.60
2022-11-15T08:08:30.993Z,73.21
2022-11-15T08:11:01.306Z,73.16
2022-11-15T08:13:28.610Z,71.74
2022-11-15T08:16:01.898Z,72.30
2022-11-15T08:18:28.624Z,73.01
2022-11-15T08:20:59.709Z,72.92
2022-11-15T08:23:26.314Z,72.93
2022-11-15T08:25:52.972Z,72.27
2022-11-15T08:28:19.534Z,73.29
2022-11-15T08:30:46.654Z,72.25
2022-11-15T08:33:15.000Z,71.75
2022-11-15T08:35:42.472Z,69.82
2022-11-15T08:38:09.229Z,67.35
2022-11-15T08:40:36.448Z,65.43
2022-11-15T08:43:03.698Z,65.46
2022-11-15T08:45:35.676Z,64.97
2022-11-15T08:48:04.330Z,65.99
2022-11-15T08:50:30.976Z,66.47
2022-11-15T08:52:57.614Z,67.49
2022-11-15T08:55:24.955Z,66.70
2022-11-15T08:57:52.021Z,65.88
2022-11-15T09:00:20.981Z,64.69
2022-11-15T09:02:47.954Z,64.25
2022-11-15T09:05:16.166Z,62.98
2022-11-15T09:07:42.770Z,62.94
2022-11-15T09:10:09.791Z,62.48
2022-11-15T09:12:36.479Z,61.35
2022-11-15T09:15:03.933Z,61.30
2022-11-15T09:17:30.485Z,62.93
2022-11-15T09:19:57.128Z,62.57
2022-11-15T09:22:23.793Z,63.26
2022-11-15T09:24:50.390Z,62.86
2022-11-15T09:27:16.968Z,61.55
2022-11-15T09:29:43.617Z,60.04
2022-11-15T09:32:10.329Z,59.01
2022-11-15T09:34:36.910Z,57.58
2022-11-15T09:37:03.486Z,59.36
2022-11-15T09:39:30.119Z,57.29
2022-11-15T09:42:26.490Z,57.41
2022-11-15T09:45:13.352Z,57.14
2022-11-15T09:48:00.112Z,56.96
2022-11-15T09:50:47.933Z,52.95
2022-11-15T09:53:41.494Z,54.06
2022-11-15T09:56:26.919Z,55.46
2022-11-15T09:58:59.314Z,55.16
2022-11-15T10:01:50.531Z,52.87
2022-11-15T10:04:17.990Z,53.49
2022-11-15T10:07:10.756Z,50.75
2022-11-15T10:09:50.446Z,50.92
2022-11-15T10:12:18.443Z,52.01
2022-11-15T10:14:51.612Z,53.74
2022-11-15T10:17:26.729Z,52.39
2022-11-15T10:20:15.083Z,52.64
2022-11-15T10:22:50.601Z,50.88
2022-11-15T10:25:27.238Z,52.58
2022-11-15T10:28:00.910Z,53.69
2022-11-15T10:30:38.471Z,51.97
2022-11-15T10:33:18.518Z,49.26
2022-11-15T10:35:45.167Z,49.71
2022-11-15T10:38:13.188Z,50.08
2022-11-15T10:40:41.685Z,48.44
2022-11-15T10:43:11.044Z,49.15
2022-11-15T10:45:39.272Z,49.60
2022-11-15T10:48:14.694Z,50.16
2022-11-15T10:50:46.466Z,49.66
2022-11-15T10:53:32.296Z,49.64
2022-11-15T10:56:09.322Z,46.09
2022-11-15T10:58:42.448Z,48.49
2022-11-15T11:01:19.264Z,45.14
2022-11-15T11:03:59.737Z,44.48
2022-11-15T11:06:27.178Z,43.19
2022-11-15T11:08:58.522Z,40.84
2022-11-15T11:11:26.618Z,42.75
2022-11-15T11:13:53.668Z,42.31
2022-11-15T11:16:33.847Z,42.90
2022-11-15T11:19:44.829Z,40.92
2022-11-15T11:22:46.886Z,42.75
2022-11-15T11:25:19.319Z,41.75
2022-11-15T11:27:57.886Z,42.24
2022-11-15T11:30:55.192Z,41.36
2022-11-15T11:33:43.065Z,42.67
2022-11-15T11:36:15.533Z,41.09
2022-11-15T11:38:55.886Z,42.24
2022-11-15T11:41:37.921Z,42.11
2022-11-15T11:44:16.299Z,41.02
2022-11-15T11:46:50.653Z,39.79
2022-11-15T11:49:24.219Z,39.18
2022-11-15T11:52:08.957Z,40.02
2022-11-15T11:55:01.884Z,40.22
2022-11-15T11:57:48.305Z,38.47
2022-11-15T12:00:23.497Z,38.94
2022-11-15T12:03:13.299Z,40.70
2022-11-15T12:05:54.935Z,39.73
2022-11-15T12:08:59.096Z,38.41
2022-11-15T12:11:37.125Z,38.80
2022-11-15T12:14:25.519Z,37.54
2022-11-15T12:16:52.238Z,38.35
2022-11-15T12:19:18.836Z,39.34
2022-11-15T12:21:49.534Z,41.98
2022-11-15T12:24:23.413Z,42.10
2022-11-15T12:26:56.782Z,40.53
2022-11-15T12:29:23.319Z,39.10
2022-11-15T12:32:01.065Z,39.43
2022-11-15T12:34:49.873Z,39.89
2022-11-15T12:37:41.691Z,39.51
2022-11-15T12:40:20.505Z,39.54
2022-11-15T12:43:02.298Z,39.99
2022-11-15T12:45:37.768Z,40.92
2022-11-15T12:48:16.597Z,39.93
2022-11-15T12:50:52.722Z,41.58
2022-11-15T12:53:29.561Z,42.06
2022-11-15T12:56:16.047Z,44.77
2022-11-15T12:58:43.510Z,46.06
2022-11-15T13:01:11.625Z,47.65
2022-11-15T13:04:17.014Z,47.29
2022-11-15T13:06:48.532Z,47.80
2022-11-15T13:09:30.148Z,45.77
2022-11-15T13:11:58.456Z,46.42
2022-11-15T13:14:47.058Z,45.24
2022-11-15T13:17:19.721Z,42.99
2022-11-15T13:19:58.369Z,40.59
2022-11-15T13:22:43.497Z,42.72
2022-11-15T13:25:20.162Z,42.78
2022-11-15T13:27:49.625Z,40.92
2022-11-15T13:30:22.408Z,42.15
2022-11-15T13:32:49.864Z,42.68
2022-11-15T13:35:41.215Z,42.52
2022-11-15T13:38:37.145Z,42.12
2022-11-15T13:41:34.586Z,40.28
2022-11-15T13:44:02.423Z,40.30
2022-11-15T13:46:34.068Z,39.04
2022-11-15T13:49:01.986Z,38.86
2022-11-15T13:51:34.566Z,39.85
2022-11-15T13:54:04.345Z,39.89
2022-11-15T13:56:35.042Z,39.80
2022-11-15T13:59:10.241Z,39.45
2022-11-15T14:01:37.486Z,39.15
2022-11-15T14:04:04.349Z,38.53
2022-11-15T14:06:32.439Z,38.42
2022-11-15T14:09:10.029Z,38.74
2022-11-15T14:11:36.893Z,38.78
2022-11-15T14:14:06.266Z,38.81
2022-11-15T14:16:38.426Z,39.06
2022-11-15T14:19:06.709Z,39.07
2022-11-15T14:21:33.720Z,39.27
2022-11-15T14:24:22.046Z,40.20
2022-11-15T14:26:49.561Z,40.43
2022-11-15T14:29:30.030Z,41.43
2022-11-15T14:32:22.831Z,40.78
2022-11-15T14:34:54.639Z,40.53
2022-11-15T14:37:38.402Z,41.07
2022-11-15T14:40:06.911Z,41.26
2022-11-15T14:42:33.515Z,42.09
2022-11-15T14:45:00.165Z,42.12
2022-11-15T14:47:26.788Z,42.62
2022-11-15T14:49:53.401Z,42.92
2022-11-15T14:52:33.020Z,42.88
2022-11-15T14:55:02.264Z,43.26
2022-11-15T14:57:29.942Z,43.74
2022-11-15T14:59:56.651Z,44.58
2022-11-15T15:02:27.946Z,44.66
2022-11-15T15:04:55.446Z,44.53
2022-11-15T15:07:23.213Z,45.64
2022-11-15T15:09:49.902Z,45.72
2022-11-15T15:12:22.053Z,45.47
2022-11-15T15:14:50.821Z,46.42
2022-11-15T15:17:18.485Z,46.72
2022-11-15T15:19:45.291Z,46.54
2022-11-15T15:22:19.884Z,46.43
2022-11-15T15:24:47.225Z,46.56
2022-11-15T15:27:14.051Z,46.35
2022-11-15T15:29:41.046Z,47.63
2022-11-15T15:32:07.995Z,47.80
2022-11-15T15:34:35.052Z,46.83
2022-11-15T15:37:26.946Z,47.81
2022-11-15T15:39:55.338Z,47.37
2022-11-15T15:42:22.924Z,47.41
2022-11-15T15:44:50.920Z,47.48
2022-11-15T15:47:20.858Z,47.76
2022-11-15T15:49:48.352Z,47.83
2022-11-15T15:52:15.033Z,48.30
2022-11-15T15:54:42.190Z,48.89
2022-11-15T15:57:11.973Z,49.53
2022-11-15T15:59:38.560Z,48.73
2022-11-15T16:02:05.555Z,48.73
2022-11-15T16:04:32.165Z,48.79
2022-11-15T16:07:03.450Z,48.31
2022-11-15T16:09:48.466Z,48.59
2022-11-15T16:12:17.257Z,48.53
2022-11-15T16:14:44.076Z,48.10
2022-11-15T16:17:18.408Z,49.79
2022-11-15T16:19:45.049Z,49.59
2022-11-15T16:22:11.695Z,49.38
2022-11-15T16:24:38.420Z,49.84
2022-11-15T16:27:05.262Z,49.68
2022-11-15T16:29:31.881Z,49.21
2022-11-15T16:31:58.444Z,49.74
2022-11-15T16:34:29.985Z,49.74
2022-11-15T16:36:57.744Z,51.35
2022-11-15T16:39:24.352Z,51.26
2022-11-15T16:41:50.939Z,50.87
2022-11-15T16:44:17.627Z,51.66
2022-11-15T16:46:45.932Z,51.07
2022-11-15T16:49:15.223Z,52.10
2022-11-15T16:51:42.690Z,51.77
2022-11-15T16:54:09.269Z,50.85
2022-11-15T16:56:35.888Z,51.56
2022-11-15T16:59:02.622Z,51.92
2022-11-15T17:01:32.832Z,53.03
2022-11-15T17:04:00.134Z,53.18
2022-11-15T17:06:27.018Z,53.08
2022-11-15T17:08:54.525Z,53.48
2022-11-15T17:11:22.704Z,53.99
2022-11-15T17:13:49.696Z,54.52
2022-11-15T17:16:18.349Z,53.72
2022-11-15T17:18:45.784Z,53.56
2022-11-15T17:21:18.417Z,52.75
2022-11-15T17:23:45.740Z,52.75
2022-11-15T17:26:32.969Z,53.91
2022-11-15T17:29:01.695Z,53.09
2022-11-15T17:31:30.836Z,53.84
2022-11-15T17:33:57.566Z,55.73
2022-11-15T17:36:24.140Z,55.96
2022-11-15T17:38:57.947Z,55.80
2022-11-15T17:41:27.058Z,54.89
2022-11-15T17:43:53.927Z,55.74
2022-11-15T17:46:21.419Z,54.81
2022-11-15T17:48:48.937Z,55.91
2022-11-15T17:51:17.889Z,56.80
2022-11-15T17:53:46.704Z,56.88
2022-11-15T17:56:18.915Z,59.24
2022-11-15T17:58:49.638Z,58.12
2022-11-15T18:01:27.619Z,57.21
2022-11-15T18:03:55.694Z,55.96
2022-11-15T18:06:24.010Z,56.33
2022-11-15T18:08:52.218Z,58.06
2022-11-15T18:11:24.450Z,57.31
2022-11-15T18:13:53.650Z,55.32
2022-11-15T18:16:22.665Z,55.37
2022-11-15T18:18:49.256Z,54.64
2022-11-15T18:21:18.821Z,54.47
2022-11-15T18:23:46.930Z,55.43
2022-11-15T18:26:15.393Z,55.57
2022-11-15T18:28:44.599Z,56.54
2022-11-15T18:31:19.661Z,56.53
2022-11-15T18:33:46.289Z,57.83
2022-11-15T18:36:18.592Z,59.79
2022-11-15T18:38:45.351Z,58.89
2022-11-15T18:41:20.791Z,57.17
2022-11-15T18:43:51.383Z,57.00
2022-11-15T18:46:23.703Z,56.83
2022-11-15T18:48:51.435Z,58.08
2022-11-15T18:51:20.781Z,58.26
2022-11-15T18:53:48.252Z,57.11
2022-11-15T18:56:18.671Z,56.86
2022-11-15T18:58:50.601Z,57.05
2022-11-15T19:01:22.528Z,56.81
2022-11-15T19:03:51.382Z,57.17
2022-11-15T19:06:22.074Z,56.19
2022-11-15T19:08:54.770Z,56.52
2022-11-15T19:11:25.522Z,56.29
2022-11-15T19:13:57.039Z,56.13
2022-11-15T19:16:24.388Z,56.10
2022-11-15T19:18:58.925Z,56.46
2022-11-15T19:21:27.000Z,56.17
2022-11-15T19:23:54.329Z,56.88
2022-11-15T19:26:22.722Z,56.61
2022-11-15T19:29:02.799Z,57.11
2022-11-15T19:31:31.468Z,56.27
2022-11-15T19:34:04.566Z,55.98
2022-11-15T19:36:34.356Z,56.31
2022-11-15T19:39:05.646Z,56.93
2022-11-15T19:41:32.439Z,57.43
2022-11-15T19:43:59.149Z,57.52
2022-11-15T19:46:26.954Z,57.99
2022-11-15T19:48:54.174Z,57.21
2022-11-15T19:51:25.074Z,58.00
2022-11-15T19:54:01.430Z,56.96
2022-11-15T19:56:28.104Z,58.13
2022-11-15T19:58:56.054Z,58.65
2022-11-15T20:01:25.658Z,59.27
2022-11-15T20:03:54.723Z,59.08
2022-11-15T20:06:24.562Z,59.03
2022-11-15T20:08:51.590Z,59.42
2022-11-15T20:11:19.184Z,60.26
2022-11-15T20:13:46.332Z,60.51
2022-11-15T20:16:18.831Z,60.69
2022-11-15T20:18:45.667Z,59.47
2022-11-15T20:21:12.362Z,59.24
2022-11-15T20:23:39.330Z,59.65
2022-11-15T20:26:07.279Z,58.71
2022-11-15T20:28:36.709Z,58.85
2022-11-15T20:31:03.842Z,58.48
2022-11-15T20:33:30.598Z,59.59
2022-11-15T20:35:57.219Z,59.30
2022-11-15T20:38:23.961Z,58.66
2022-11-15T20:40:56.059Z,60.05
2022-11-15T20:43:25.694Z,59.93
2022-11-15T20:45:52.354Z,60.64
2022-11-15T20:48:19.054Z,59.97
2022-11-15T20:50:47.080Z,60.19
2022-11-15T20:53:18.271Z,60.43
2022-11-15T20:55:47.988Z,60.84
2022-11-15T20:58:15.709Z,60.50
2022-11-15T21:00:44.767Z,59.66
2022-11-15T21:03:14.313Z,59.55
2022-11-15T21:05:42.971Z,60.18
2022-11-15T21:08:11.006Z,60.27
2022-11-15T21:10:56.500Z,59.01
2022-11-15T21:13:23.138Z,60.00
2022-11-15T21:15:49.769Z,61.07
2022-11-15T21:18:16.625Z,60.41
2022-11-15T21:20:43.437Z,59.54
2022-11-15T21:23:11.648Z,59.32
2022-11-15T21:25:38.279Z,58.62
2022-11-15T21:28:05.122Z,58.08
2022-11-15T21:30:31.729Z,57.92
2022-11-15T21:32:58.367Z,58.04
2022-11-15T21:35:25.202Z,59.93
2022-11-15T21:37:56.396Z,60.38
2022-11-15T21:40:23.653Z,59.46
2022-11-15T21:42:50.300Z,59.40
2022-11-15T21:45:16.999Z,59.22
2022-11-15T21:47:46.474Z,58.85
2022-11-15T21:50:13.679Z,59.38
2022-11-15T21:52:40.884Z,59.27
2022-11-15T21:55:08.468Z,58.97
2022-11-15T21:57:35.107Z,59.24
2022-11-15T22:00:20.381Z,58.73
2022-11-15T22:02:47.025Z,58.44
2022-11-15T22:05:13.680Z,57.96
2022-11-15T22:07:40.450Z,59.25
2022-11-15T22:10:08.658Z,59.10
2022-11-15T22:12:35.252Z,58.72
2022-11-15T22:15:01.820Z,59.34
2022-11-15T22:17:48.399Z,62.81
2022-11-15T22:23:02.584Z,62.63
2022-11-15T22:25:29.743Z,62.04
2022-11-15T22:27:56.394Z,62.42
2022-11-15T22:30:24.295Z,63.24
2022-11-15T22:32:50.961Z,61.94
2022-11-15T22:35:17.808Z,61.15
2022-11-15T22:37:44.868Z,60.17
2022-11-15T22:40:11.594Z,59.65
2022-11-15T22:42:38.194Z,59.59
2022-11-15T22:45:05.218Z,59.42
2022-11-15T22:47:31.878Z,59.73
2022-11-15T22:49:58.611Z,59.58
2022-11-15T22:52:25.221Z,60.06
2022-11-15T22:54:51.891Z,59.74
2022-11-15T22:57:18.510Z,59.59
2022-11-15T22:59:45.200Z,59.27
2022-11-15T23:02:11.854Z,59.76
2022-11-15T23:04:38.495Z,60.39
2022-11-15T23:07:05.252Z,62.04
2022-11-15T23:09:31.923Z,62.20
2022-11-15T23:12:17.343Z,62.15
2022-11-15T23:14:44.010Z,63.29
2022-11-15T23:17:10.641Z,64.74
2022-11-15T23:19:37.317Z,64.52
2022-11-15T23:22:22.481Z,66.29
2022-11-15T23:24:49.226Z,66.95
2022-11-15T23:27:19.960Z,67.36
2022-11-15T23:30:05.786Z,68.06
2022-11-15T23:32:51.211Z,67.25
2022-11-15T23:35:17.893Z,67.58
2022-11-15T23:37:44.561Z,66.67
2022-11-15T23:40:11.976Z,65.22
2022-11-15T23:42:38.647Z,65.39
2022-11-15T23:45:06.200Z,65.37
2022-11-15T23:47:32.844Z,65.30
2022-11-15T23:49:59.492Z,66.15
2022-11-15T23:52:26.142Z,66.06
2022-11-15T23:54:52.868Z,65.33
2022-11-15T23:57:19.725Z,66.04
2022-11-15T23:59:46.357Z,65.06
